sensor_id;sensor_type;location;lat;lon;timestamp;pressure;altitude;pressure_sealevel;temperature;humidity
26719;BME280;14326;50.794;6.060;2023-07-24T00:00:28;98646.44;;;18.70;100.00
26719;BME280;14326;50.794;6.060;2023-07-24T00:03:10;98647.16;;;18.75;100.00
26719;BME280;14326;50.794;6.060;2023-07-24T00:05:52;98652.53;;;18.75;100.00
26719;BME280;14326;50.794;6.060;2023-07-24T00:08:30;98650.91;;;18.71;100.00
26719;BME280;14326;50.794;6.060;2023-07-24T00:11:17;98647.53;;;18.66;100.00
26719;BME280;14326;50.794;6.060;2023-07-24T00:14:04;98639.53;;;18.63;100.00
26719;BME280;14326;50.794;6.060;2023-07-24T00:16:51;98640.31;;;18.67;100.00
26719;BME280;14326;50.794;6.060;2023-07-24T00:19:41;98637.91;;;18.59;100.00
26719;BME280;14326;50.794;6.060;2023-07-24T00:22:35;98639.50;;;18.65;100.00
26719;BME280;14326;50.794;6.060;2023-07-24T00:28:06;98624.22;;;18.65;100.00
26719;BME280;14326;50.794;6.060;2023-07-24T00:30:44;98615.44;;;18.60;100.00
26719;BME280;14326;50.794;6.060;2023-07-24T00:33:40;98611.66;;;18.64;100.00
26719;BME280;14326;50.794;6.060;2023-07-24T00:39:15;98614.81;;;18.52;100.00
26719;BME280;14326;50.794;6.060;2023-07-24T00:44:31;98606.88;;;18.49;100.00
26719;BME280;14326;50.794;6.060;2023-07-24T00:46:57;98609.78;;;18.43;100.00
26719;BME280;14326;50.794;6.060;2023-07-24T00:49:26;98603.34;;;18.47;100.00
26719;BME280;14326;50.794;6.060;2023-07-24T00:55:09;98583.56;;;18.48;100.00
26719;BME280;14326;50.794;6.060;2023-07-24T00:57:49;98579.28;;;18.42;100.00
26719;BME280;14326;50.794;6.060;2023-07-24T01:00:37;98585.22;;;18.51;100.00
26719;BME280;14326;50.794;6.060;2023-07-24T01:03:08;98578.75;;;18.56;100.00
26719;BME280;14326;50.794;6.060;2023-07-24T01:05:48;98576.06;;;18.56;100.00
26719;BME280;14326;50.794;6.060;2023-07-24T01:08:35;98566.94;;;18.60;100.00
26719;BME280;14326;50.794;6.060;2023-07-24T01:11:32;98562.94;;;18.70;100.00
26719;BME280;14326;50.794;6.060;2023-07-24T01:14:43;98572.78;;;18.71;100.00
26719;BME280;14326;50.794;6.060;2023-07-24T01:17:25;98569.50;;;18.63;100.00
26719;BME280;14326;50.794;6.060;2023-07-24T01:23:44;98549.06;;;18.79;100.00
26719;BME280;14326;50.794;6.060;2023-07-24T01:29:34;98555.50;;;18.77;100.00
26719;BME280;14326;50.794;6.060;2023-07-24T01:32:25;98557.53;;;18.92;100.00
26719;BME280;14326;50.794;6.060;2023-07-24T01:35:22;98553.28;;;18.87;100.00
26719;BME280;14326;50.794;6.060;2023-07-24T01:37:57;98556.75;;;18.90;100.00
26719;BME280;14326;50.794;6.060;2023-07-24T01:40:54;98557.53;;;18.92;100.00
26719;BME280;14326;50.794;6.060;2023-07-24T01:43:39;98549.97;;;19.02;100.00
26719;BME280;14326;50.794;6.060;2023-07-24T01:46:06;98554.53;;;19.00;100.00
26719;BME280;14326;50.794;6.060;2023-07-24T01:48:33;98540.38;;;18.95;100.00
26719;BME280;14326;50.794;6.060;2023-07-24T01:51:00;98538.63;;;18.94;100.00
26719;BME280;14326;50.794;6.060;2023-07-24T01:53:26;98540.31;;;18.96;100.00
26719;BME280;14326;50.794;6.060;2023-07-24T01:56:03;98529.78;;;18.90;100.00
26719;BME280;14326;50.794;6.060;2023-07-24T02:01:55;98519.31;;;18.83;100.00
26719;BME280;14326;50.794;6.060;2023-07-24T02:04:32;98516.19;;;18.71;100.00
26719;BME280;14326;50.794;6.060;2023-07-24T02:10:09;98514.13;;;18.56;100.00
26719;BME280;14326;50.794;6.060;2023-07-24T02:12:39;98519.34;;;18.61;100.00
26719;BME280;14326;50.794;6.060;2023-07-24T02:15:08;98498.25;;;18.49;100.00
26719;BME280;14326;50.794;6.060;2023-07-24T02:17:40;98486.63;;;18.48;100.00
26719;BME280;14326;50.794;6.060;2023-07-24T02:20:17;98495.88;;;18.41;100.00
26719;BME280;14326;50.794;6.060;2023-07-24T02:23:12;98492.50;;;18.36;100.00
26719;BME280;14326;50.794;6.060;2023-07-24T02:25:59;98476.34;;;18.36;100.00
26719;BME280;14326;50.794;6.060;2023-07-24T02:31:40;98497.09;;;18.32;100.00
26719;BME280;14326;50.794;6.060;2023-07-24T02:34:19;98494.50;;;18.31;100.00
26719;BME280;14326;50.794;6.060;2023-07-24T02:37:02;98489.16;;;18.29;100.00
26719;BME280;14326;50.794;6.060;2023-07-24T02:40:07;98474.81;;;18.29;100.00
26719;BME280;14326;50.794;6.060;2023-07-24T02:42:45;98468.81;;;18.22;100.00
26719;BME280;14326;50.794;6.060;2023-07-24T02:45:12;98477.75;;;18.23;100.00
26719;BME280;14326;50.794;6.060;2023-07-24T02:47:57;98470.63;;;18.22;100.00
26719;BME280;14326;50.794;6.060;2023-07-24T02:50:49;98470.19;;;18.32;100.00
26719;BME280;14326;50.794;6.060;2023-07-24T02:53:29;98479.81;;;18.38;100.00
26719;BME280;14326;50.794;6.060;2023-07-24T02:56:07;98480.94;;;18.32;100.00
26719;BME280;14326;50.794;6.060;2023-07-24T02:58:47;98475.50;;;18.34;100.00
26719;BME280;14326;50.794;6.060;2023-07-24T03:01:19;98478.63;;;18.23;100.00
26719;BME280;14326;50.794;6.060;2023-07-24T03:04:06;98472.31;;;18.24;100.00
26719;BME280;14326;50.794;6.060;2023-07-24T03:06:43;98475.06;;;18.23;100.00
26719;BME280;14326;50.794;6.060;2023-07-24T03:09:30;98479.47;;;18.25;100.00
26719;BME280;14326;50.794;6.060;2023-07-24T03:12:07;98484.97;;;18.22;100.00
26719;BME280;14326;50.794;6.060;2023-07-24T03:14:34;98474.78;;;18.30;100.00
26719;BME280;14326;50.794;6.060;2023-07-24T03:17:01;98492.72;;;18.30;100.00
26719;BME280;14326;50.794;6.060;2023-07-24T03:19:28;98488.44;;;18.26;100.00
26719;BME280;14326;50.794;6.060;2023-07-24T03:22:02;98483.84;;;18.28;100.00
26719;BME280;14326;50.794;6.060;2023-07-24T03:24:54;98473.59;;;18.37;100.00
26719;BME280;14326;50.794;6.060;2023-07-24T03:27:41;98464.75;;;18.34;100.00
26719;BME280;14326;50.794;6.060;2023-07-24T03:30:22;98463.06;;;18.31;100.00
26719;BME280;14326;50.794;6.060;2023-07-24T03:36:05;98453.28;;;18.29;100.00
26719;BME280;14326;50.794;6.060;2023-07-24T03:38:43;98450.78;;;18.24;100.00
26719;BME280;14326;50.794;6.060;2023-07-24T03:41:20;98447.28;;;18.22;100.00
26719;BME280;14326;50.794;6.060;2023-07-24T03:44:04;98439.88;;;18.27;100.00
26719;BME280;14326;50.794;6.060;2023-07-24T03:46:45;98447.91;;;18.29;100.00
26719;BME280;14326;50.794;6.060;2023-07-24T03:49:40;98441.34;;;18.36;100.00
26719;BME280;14326;50.794;6.060;2023-07-24T03:52:23;98451.28;;;18.34;100.00
26719;BME280;14326;50.794;6.060;2023-07-24T03:55:13;98440.41;;;18.37;100.00
26719;BME280;14326;50.794;6.060;2023-07-24T03:58:11;98439.69;;;18.32;100.00
26719;BME280;14326;50.794;6.060;2023-07-24T04:00:50;98427.25;;;18.29;100.00
26719;BME280;14326;50.794;6.060;2023-07-24T04:03:16;98426.50;;;18.26;100.00
26719;BME280;14326;50.794;6.060;2023-07-24T04:05:43;98432.88;;;18.23;100.00
26719;BME280;14326;50.794;6.060;2023-07-24T04:08:11;98425.69;;;18.24;100.00
26719;BME280;14326;50.794;6.060;2023-07-24T04:10:37;98438.66;;;18.36;100.00
26719;BME280;14326;50.794;6.060;2023-07-24T04:13:04;98430.75;;;18.31;100.00
26719;BME280;14326;50.794;6.060;2023-07-24T04:15:31;98427.97;;;18.33;100.00
26719;BME280;14326;50.794;6.060;2023-07-24T04:18:08;98433.38;;;18.33;100.00
26719;BME280;14326;50.794;6.060;2023-07-24T04:20:51;98435.56;;;18.23;100.00
26719;BME280;14326;50.794;6.060;2023-07-24T04:23:36;98442.22;;;18.36;100.00
26719;BME280;14326;50.794;6.060;2023-07-24T04:29:31;98449.66;;;18.30;100.00
26719;BME280;14326;50.794;6.060;2023-07-24T04:35:10;98454.28;;;18.26;100.00
26719;BME280;14326;50.794;6.060;2023-07-24T04:37:47;98450.53;;;18.30;100.00
26719;BME280;14326;50.794;6.060;2023-07-24T04:40:32;98452.34;;;18.30;100.00
26719;BME280;14326;50.794;6.060;2023-07-24T04:43:22;98461.38;;;18.29;100.00
26719;BME280;14326;50.794;6.060;2023-07-24T04:45:49;98466.16;;;18.21;100.00
26719;BME280;14326;50.794;6.060;2023-07-24T04:48:20;98472.56;;;18.18;100.00
26719;BME280;14326;50.794;6.060;2023-07-24T04:51:05;98478.00;;;18.17;100.00
26719;BME280;14326;50.794;6.060;2023-07-24T04:53:43;98486.66;;;18.25;100.00
26719;BME280;14326;50.794;6.060;2023-07-24T04:56:22;98487.41;;;18.28;100.00
26719;BME280;14326;50.794;6.060;2023-07-24T04:59:12;98478.19;;;18.34;100.00
26719;BME280;14326;50.794;6.060;2023-07-24T05:02:12;98486.19;;;18.37;100.00
26719;BME280;14326;50.794;6.060;2023-07-24T05:05:01;98497.06;;;18.34;100.00
26719;BME280;14326;50.794;6.060;2023-07-24T05:07:39;98507.53;;;18.41;100.00
26719;BME280;14326;50.794;6.060;2023-07-24T05:10:19;98495.38;;;18.53;100.00
26719;BME280;14326;50.794;6.060;2023-07-24T05:13:07;98500.50;;;18.61;100.00
26719;BME280;14326;50.794;6.060;2023-07-24T05:15:50;98509.16;;;18.67;100.00
26719;BME280;14326;50.794;6.060;2023-07-24T05:18:47;98509.16;;;18.67;100.00
26719;BME280;14326;50.794;6.060;2023-07-24T05:21:41;98512.63;;;18.71;100.00
26719;BME280;14326;50.794;6.060;2023-07-24T05:24:27;98512.69;;;18.69;100.00
26719;BME280;14326;50.794;6.060;2023-07-24T05:27:30;98517.25;;;18.67;100.00
26719;BME280;14326;50.794;6.060;2023-07-24T05:30:21;98514.06;;;18.58;100.00
26719;BME280;14326;50.794;6.060;2023-07-24T05:33:11;98518.28;;;18.65;100.00
26719;BME280;14326;50.794;6.060;2023-07-24T05:36:02;98518.31;;;18.63;100.00
26719;BME280;14326;50.794;6.060;2023-07-24T05:38:35;98516.47;;;18.65;100.00
26719;BME280;14326;50.794;6.060;2023-07-24T05:41:12;98496.66;;;18.66;100.00
26719;BME280;14326;50.794;6.060;2023-07-24T05:43:48;98499.16;;;18.71;100.00
26719;BME280;14326;50.794;6.060;2023-07-24T05:46:38;98508.06;;;18.73;100.00
26719;BME280;14326;50.794;6.060;2023-07-24T05:49:20;98501.72;;;18.74;100.00
26719;BME280;14326;50.794;6.060;2023-07-24T05:51:57;98498.84;;;18.78;100.00
26719;BME280;14326;50.794;6.060;2023-07-24T05:54:25;98504.91;;;18.84;100.00
26719;BME280;14326;50.794;6.060;2023-07-24T06:00:12;98495.44;;;18.95;100.00
26719;BME280;14326;50.794;6.060;2023-07-24T06:02:54;98504.94;;;19.04;100.00
26719;BME280;14326;50.794;6.060;2023-07-24T06:05:33;98503.31;;;19.00;100.00
26719;BME280;14326;50.794;6.060;2023-07-24T06:08:05;98499.63;;;19.02;100.00
26719;BME280;14326;50.794;6.060;2023-07-24T06:10:35;98500.22;;;19.09;100.00
26719;BME280;14326;50.794;6.060;2023-07-24T06:13:21;98498.81;;;19.00;100.00
26719;BME280;14326;50.794;6.060;2023-07-24T06:16:12;98497.78;;;19.03;100.00
26719;BME280;14326;50.794;6.060;2023-07-24T06:19:03;98490.47;;;19.06;100.00
26719;BME280;14326;50.794;6.060;2023-07-24T06:21:45;98498.34;;;19.11;100.00
26719;BME280;14326;50.794;6.060;2023-07-24T06:24:32;98506.16;;;19.17;100.00
26719;BME280;14326;50.794;6.060;2023-07-24T06:27:26;98509.75;;;19.17;100.00
26719;BME280;14326;50.794;6.060;2023-07-24T06:30:18;98506.31;;;19.14;100.00
26719;BME280;14326;50.794;6.060;2023-07-24T06:32:47;98492.84;;;19.14;100.00
26719;BME280;14326;50.794;6.060;2023-07-24T06:35:43;98491.06;;;19.13;100.00
26719;BME280;14326;50.794;6.060;2023-07-24T06:38:26;98507.03;;;19.17;100.00
26719;BME280;14326;50.794;6.060;2023-07-24T06:41:03;98510.88;;;19.12;100.00
26719;BME280;14326;50.794;6.060;2023-07-24T06:43:30;98508.13;;;19.13;100.00
26719;BME280;14326;50.794;6.060;2023-07-24T06:46:07;98501.44;;;19.22;100.00
26719;BME280;14326;50.794;6.060;2023-07-24T06:48:37;98491.75;;;19.18;100.00
26719;BME280;14326;50.794;6.060;2023-07-24T06:54:03;98492.94;;;19.11;100.00
26719;BME280;14326;50.794;6.060;2023-07-24T06:56:47;98490.94;;;19.16;100.00
26719;BME280;14326;50.794;6.060;2023-07-24T06:59:21;98491.69;;;19.19;100.00
26719;BME280;14326;50.794;6.060;2023-07-24T07:01:50;98498.28;;;19.12;100.00
26719;BME280;14326;50.794;6.060;2023-07-24T07:04:21;98487.28;;;19.17;100.00
26719;BME280;14326;50.794;6.060;2023-07-24T07:06:58;98483.19;;;19.29;100.00
26719;BME280;14326;50.794;6.060;2023-07-24T07:09:25;98484.63;;;19.37;100.00
26719;BME280;14326;50.794;6.060;2023-07-24T07:11:51;98481.53;;;19.46;100.00
26719;BME280;14326;50.794;6.060;2023-07-24T07:14:30;98474.44;;;19.44;100.00
26719;BME280;14326;50.794;6.060;2023-07-24T07:17:11;98476.13;;;19.46;99.93
26719;BME280;14326;50.794;6.060;2023-07-24T07:19:47;98462.28;;;19.34;100.00
26719;BME280;14326;50.794;6.060;2023-07-24T07:22:17;98466.94;;;19.30;100.00
26719;BME280;14326;50.794;6.060;2023-07-24T07:25:09;98480.81;;;19.41;99.69
26719;BME280;14326;50.794;6.060;2023-07-24T07:27:58;98488.25;;;19.36;100.00
26719;BME280;14326;50.794;6.060;2023-07-24T07:30:41;98487.97;;;19.42;98.83
26719;BME280;14326;50.794;6.060;2023-07-24T07:36:01;98482.69;;;19.39;98.79
26719;BME280;14326;50.794;6.060;2023-07-24T07:38:54;98475.78;;;19.54;99.38
26719;BME280;14326;50.794;6.060;2023-07-24T07:44:17;98482.22;;;19.70;96.23
26719;BME280;14326;50.794;6.060;2023-07-24T07:46:55;98481.16;;;19.93;95.28
26719;BME280;14326;50.794;6.060;2023-07-24T07:49:34;98477.19;;;20.20;93.80
26719;BME280;14326;50.794;6.060;2023-07-24T07:52:11;98474.47;;;20.39;92.12
26719;BME280;14326;50.794;6.060;2023-07-24T07:54:48;98482.28;;;20.45;90.31
26719;BME280;14326;50.794;6.060;2023-07-24T07:57:41;98474.28;;;20.43;90.52
26719;BME280;14326;50.794;6.060;2023-07-24T08:00:20;98487.59;;;20.47;91.41
26719;BME280;14326;50.794;6.060;2023-07-24T08:03:07;98481.59;;;20.59;90.67
26719;BME280;14326;50.794;6.060;2023-07-24T08:05:49;98470.25;;;20.69;90.00
26719;BME280;14326;50.794;6.060;2023-07-24T08:08:28;98454.88;;;20.89;88.76
26719;BME280;14326;50.794;6.060;2023-07-24T08:11:31;98454.47;;;20.79;86.27
26719;BME280;14326;50.794;6.060;2023-07-24T08:14:13;98443.00;;;20.74;89.26
26719;BME280;14326;50.794;6.060;2023-07-24T08:16:52;98442.53;;;20.66;88.13
26719;BME280;14326;50.794;6.060;2023-07-24T08:19:43;98452.19;;;20.53;88.99
26719;BME280;14326;50.794;6.060;2023-07-24T08:22:17;98448.69;;;20.51;88.95
26719;BME280;14326;50.794;6.060;2023-07-24T08:24:55;98445.72;;;20.38;88.95
26719;BME280;14326;50.794;6.060;2023-07-24T08:27:45;98451.53;;;20.48;89.81
26719;BME280;14326;50.794;6.060;2023-07-24T08:30:23;98464.44;;;20.60;89.87
26719;BME280;14326;50.794;6.060;2023-07-24T08:33:07;98448.97;;;20.80;86.96
26719;BME280;14326;50.794;6.060;2023-07-24T08:35:58;98446.44;;;20.77;87.75
26719;BME280;14326;50.794;6.060;2023-07-24T08:38:47;98454.16;;;20.85;88.15
26719;BME280;14326;50.794;6.060;2023-07-24T08:41:21;98455.94;;;21.20;86.23
26719;BME280;14326;50.794;6.060;2023-07-24T08:44:17;98457.75;;;21.37;85.24
26719;BME280;14326;50.794;6.060;2023-07-24T08:46:51;98450.38;;;21.56;84.05
26719;BME280;14326;50.794;6.060;2023-07-24T08:49:24;98457.56;;;21.57;84.96
26719;BME280;14326;50.794;6.060;2023-07-24T08:52:14;98443.81;;;21.45;84.31
26719;BME280;14326;50.794;6.060;2023-07-24T08:54:58;98442.72;;;21.32;85.42
26719;BME280;14326;50.794;6.060;2023-07-24T09:01:00;98419.41;;;21.29;84.94
26719;BME280;14326;50.794;6.060;2023-07-24T09:03:55;98431.19;;;21.28;85.52
26719;BME280;14326;50.794;6.060;2023-07-24T09:06:44;98433.25;;;21.23;85.36
26719;BME280;14326;50.794;6.060;2023-07-24T09:09:44;98428.38;;;21.12;86.16
26719;BME280;14326;50.794;6.060;2023-07-24T09:12:41;98418.38;;;21.14;86.73
26719;BME280;14326;50.794;6.060;2023-07-24T09:15:09;98418.38;;;21.14;86.58
26719;BME280;14326;50.794;6.060;2023-07-24T09:17:47;98418.38;;;21.14;85.99
26719;BME280;14326;50.794;6.060;2023-07-24T09:20:37;98414.56;;;21.18;87.37
26719;BME280;14326;50.794;6.060;2023-07-24T09:23:32;98405.06;;;21.10;86.39
26719;BME280;14326;50.794;6.060;2023-07-24T09:26:14;98405.50;;;21.02;86.81
26719;BME280;14326;50.794;6.060;2023-07-24T09:29:07;98406.44;;;21.01;86.80
26719;BME280;14326;50.794;6.060;2023-07-24T09:31:43;98398.97;;;20.89;88.39
26719;BME280;14326;50.794;6.060;2023-07-24T09:34:27;98392.69;;;20.89;89.21
26719;BME280;14326;50.794;6.060;2023-07-24T09:37:05;98389.44;;;20.82;92.08
26719;BME280;14326;50.794;6.060;2023-07-24T09:39:40;98374.16;;;20.81;91.08
26719;BME280;14326;50.794;6.060;2023-07-24T09:42:09;98356.34;;;20.94;91.50
26719;BME280;14326;50.794;6.060;2023-07-24T09:44:46;98351.88;;;21.10;92.17
26719;BME280;14326;50.794;6.060;2023-07-24T09:47:35;98333.66;;;21.47;89.94
26719;BME280;14326;50.794;6.060;2023-07-24T09:50:16;98342.66;;;21.96;83.78
26719;BME280;14326;50.794;6.060;2023-07-24T09:52:58;98336.22;;;22.44;82.20
26719;BME280;14326;50.794;6.060;2023-07-24T09:55:42;98332.66;;;22.88;81.53
26719;BME280;14326;50.794;6.060;2023-07-24T09:58:21;98330.88;;;23.31;80.95
26719;BME280;14326;50.794;6.060;2023-07-24T10:01:05;98331.25;;;23.39;78.28
26719;BME280;14326;50.794;6.060;2023-07-24T10:03:34;98329.91;;;23.46;76.87
26719;BME280;14326;50.794;6.060;2023-07-24T10:06:29;98328.53;;;23.39;76.37
26719;BME280;14326;50.794;6.060;2023-07-24T10:09:29;98316.81;;;23.10;77.40
26719;BME280;14326;50.794;6.060;2023-07-24T10:12:17;98325.31;;;23.04;77.75
26719;BME280;14326;50.794;6.060;2023-07-24T10:15:16;98322.03;;;22.99;80.27
26719;BME280;14326;50.794;6.060;2023-07-24T10:18:25;98304.88;;;22.68;80.26
26719;BME280;14326;50.794;6.060;2023-07-24T10:21:17;98307.94;;;22.48;79.32
26719;BME280;14326;50.794;6.060;2023-07-24T10:23:52;98306.34;;;22.30;82.38
26719;BME280;14326;50.794;6.060;2023-07-24T10:26:43;98305.84;;;22.08;87.64
26719;BME280;14326;50.794;6.060;2023-07-24T10:29:15;98309.34;;;21.78;92.32
26719;BME280;14326;50.794;6.060;2023-07-24T10:34:56;98331.44;;;21.22;99.88
26719;BME280;14326;50.794;6.060;2023-07-24T10:40:25;98375.34;;;20.58;100.00
26719;BME280;14326;50.794;6.060;2023-07-24T10:42:59;98362.31;;;20.32;100.00
26719;BME280;14326;50.794;6.060;2023-07-24T10:45:26;98365.75;;;19.98;100.00
26719;BME280;14326;50.794;6.060;2023-07-24T10:47:57;98361.22;;;19.80;100.00
26719;BME280;14326;50.794;6.060;2023-07-24T10:50:42;98357.09;;;19.73;100.00
26719;BME280;14326;50.794;6.060;2023-07-24T10:53:18;98356.06;;;19.94;100.00
26719;BME280;14326;50.794;6.060;2023-07-24T10:55:53;98357.34;;;20.04;100.00
26719;BME280;14326;50.794;6.060;2023-07-24T10:58:24;98354.97;;;20.34;100.00
26719;BME280;14326;50.794;6.060;2023-07-24T11:01:03;98362.22;;;20.51;100.00
26719;BME280;14326;50.794;6.060;2023-07-24T11:03:45;98374.00;;;20.50;100.00
26719;BME280;14326;50.794;6.060;2023-07-24T11:06:24;98393.94;;;20.28;100.00
26719;BME280;14326;50.794;6.060;2023-07-24T11:09:10;98382.44;;;20.06;100.00
26719;BME280;14326;50.794;6.060;2023-07-24T11:11:59;98389.75;;;20.04;100.00
26719;BME280;14326;50.794;6.060;2023-07-24T11:14:45;98378.53;;;19.94;100.00
26719;BME280;14326;50.794;6.060;2023-07-24T11:17:42;98382.25;;;19.92;100.00
26719;BME280;14326;50.794;6.060;2023-07-24T11:20:29;98389.25;;;19.96;100.00
26719;BME280;14326;50.794;6.060;2023-07-24T11:23:08;98377.13;;;20.04;100.00
26719;BME280;14326;50.794;6.060;2023-07-24T11:25:58;98380.66;;;20.24;100.00
26719;BME280;14326;50.794;6.060;2023-07-24T11:28:38;98379.56;;;20.64;100.00
26719;BME280;14326;50.794;6.060;2023-07-24T11:31:28;98376.88;;;20.81;100.00
26719;BME280;14326;50.794;6.060;2023-07-24T11:34:32;98375.59;;;21.22;100.00
26719;BME280;14326;50.794;6.060;2023-07-24T11:37:13;98383.81;;;21.70;100.00
26719;BME280;14326;50.794;6.060;2023-07-24T11:40:00;98362.03;;;22.04;100.00
26719;BME280;14326;50.794;6.060;2023-07-24T11:42:52;98363.09;;;22.01;100.00
26719;BME280;14326;50.794;6.060;2023-07-24T11:48:30;98365.09;;;21.16;100.00
26719;BME280;14326;50.794;6.060;2023-07-24T11:51:21;98356.28;;;20.96;100.00
26719;BME280;14326;50.794;6.060;2023-07-24T11:57:04;98336.28;;;20.98;98.44
26719;BME280;14326;50.794;6.060;2023-07-24T11:59:55;98334.88;;;21.08;98.04
26719;BME280;14326;50.794;6.060;2023-07-24T12:02:28;98337.09;;;21.17;95.18
26719;BME280;14326;50.794;6.060;2023-07-24T12:04:56;98331.69;;;21.17;99.88
26719;BME280;14326;50.794;6.060;2023-07-24T12:07:32;98336.44;;;21.45;97.34
26719;BME280;14326;50.794;6.060;2023-07-24T12:10:09;98333.47;;;21.34;94.33
26719;BME280;14326;50.794;6.060;2023-07-24T12:12:47;98334.94;;;21.73;94.25
26719;BME280;14326;50.794;6.060;2023-07-24T12:15:24;98331.13;;;22.08;92.04
26719;BME280;14326;50.794;6.060;2023-07-24T12:18:13;98331.31;;;22.35;93.44
26719;BME280;14326;50.794;6.060;2023-07-24T12:20:55;98328.81;;;22.32;90.43
26719;BME280;14326;50.794;6.060;2023-07-24T12:23:50;98328.56;;;22.05;97.97
26719;BME280;14326;50.794;6.060;2023-07-24T12:26:44;98331.47;;;22.02;94.93
26719;BME280;14326;50.794;6.060;2023-07-24T12:29:16;98327.66;;;22.36;91.83
26719;BME280;14326;50.794;6.060;2023-07-24T12:32:03;98335.41;;;22.42;87.75
26719;BME280;14326;50.794;6.060;2023-07-24T12:34:34;98353.47;;;22.57;87.32
26719;BME280;14326;50.794;6.060;2023-07-24T12:37:07;98341.50;;;22.45;85.21
26719;BME280;14326;50.794;6.060;2023-07-24T12:39:42;98347.59;;;22.03;85.01
26719;BME280;14326;50.794;6.060;2023-07-24T12:42:12;98348.66;;;22.01;87.95
26719;BME280;14326;50.794;6.060;2023-07-24T12:44:39;98356.56;;;21.88;88.89
26719;BME280;14326;50.794;6.060;2023-07-24T12:47:07;98358.34;;;21.89;90.01
26719;BME280;14326;50.794;6.060;2023-07-24T12:49:34;98373.78;;;21.87;88.57
26719;BME280;14326;50.794;6.060;2023-07-24T12:52:19;98368.16;;;21.59;89.24
26719;BME280;14326;50.794;6.060;2023-07-24T12:54:53;98373.31;;;21.48;87.36
26719;BME280;14326;50.794;6.060;2023-07-24T12:57:45;98372.88;;;21.22;90.85
26719;BME280;14326;50.794;6.060;2023-07-24T13:00:46;98371.66;;;21.11;93.52
26719;BME280;14326;50.794;6.060;2023-07-24T13:03:32;98386.47;;;20.87;94.24
26719;BME280;14326;50.794;6.060;2023-07-24T13:06:27;98390.22;;;20.67;97.54
26719;BME280;14326;50.794;6.060;2023-07-24T13:09:01;98396.09;;;20.58;99.79
26719;BME280;14326;50.794;6.060;2023-07-24T13:11:42;98402.91;;;20.48;98.22
26719;BME280;14326;50.794;6.060;2023-07-24T13:14:19;98409.13;;;20.31;99.65
26719;BME280;14326;50.794;6.060;2023-07-24T13:16:55;98422.06;;;20.06;100.00
26719;BME280;14326;50.794;6.060;2023-07-24T13:19:37;98419.44;;;20.04;100.00
26719;BME280;14326;50.794;6.060;2023-07-24T13:22:07;98425.00;;;20.01;100.00
26719;BME280;14326;50.794;6.060;2023-07-24T13:24:34;98429.59;;;19.99;100.00
26719;BME280;14326;50.794;6.060;2023-07-24T13:27:01;98431.78;;;19.91;100.00
26719;BME280;14326;50.794;6.060;2023-07-24T13:32:57;98432.84;;;19.68;100.00
26719;BME280;14326;50.794;6.060;2023-07-24T13:35:43;98424.91;;;19.65;100.00
26719;BME280;14326;50.794;6.060;2023-07-24T13:38:37;98426.66;;;19.66;100.00
26719;BME280;14326;50.794;6.060;2023-07-24T13:41:27;98432.13;;;19.65;100.00
26719;BME280;14326;50.794;6.060;2023-07-24T13:44:10;98427.97;;;19.76;100.00
26719;BME280;14326;50.794;6.060;2023-07-24T13:47:15;98422.06;;;19.87;100.00
26719;BME280;14326;50.794;6.060;2023-07-24T13:49:59;98417.56;;;19.87;100.00
26719;BME280;14326;50.794;6.060;2023-07-24T13:52:37;98419.38;;;19.87;100.00
26719;BME280;14326;50.794;6.060;2023-07-24T13:58:05;98403.69;;;19.95;100.00
26719;BME280;14326;50.794;6.060;2023-07-24T14:00:54;98397.59;;;20.27;100.00
26719;BME280;14326;50.794;6.060;2023-07-24T14:03:32;98394.50;;;20.71;100.00
26719;BME280;14326;50.794;6.060;2023-07-24T14:06:19;98391.56;;;20.93;100.00
26719;BME280;14326;50.794;6.060;2023-07-24T14:09:16;98391.34;;;21.14;100.00
26719;BME280;14326;50.794;6.060;2023-07-24T14:12:06;98381.53;;;21.29;94.48
26719;BME280;14326;50.794;6.060;2023-07-24T14:14:44;98384.38;;;21.43;98.11
26719;BME280;14326;50.794;6.060;2023-07-24T14:17:36;98389.13;;;21.71;92.44
26719;BME280;14326;50.794;6.060;2023-07-24T14:20:20;98396.31;;;21.72;88.92
26719;BME280;14326;50.794;6.060;2023-07-24T14:23:01;98398.63;;;21.62;89.63
26719;BME280;14326;50.794;6.060;2023-07-24T14:25:46;98396.41;;;21.38;88.58
26719;BME280;14326;50.794;6.060;2023-07-24T14:28:27;98400.03;;;21.54;88.63
26719;BME280;14326;50.794;6.060;2023-07-24T14:31:03;98400.78;;;21.56;87.86
26719;BME280;14326;50.794;6.060;2023-07-24T14:33:45;98391.88;;;21.38;87.52
26719;BME280;14326;50.794;6.060;2023-07-24T14:36:22;98405.69;;;21.49;86.72
26719;BME280;14326;50.794;6.060;2023-07-24T14:39:07;98397.03;;;21.43;87.21
26719;BME280;14326;50.794;6.060;2023-07-24T14:41:43;98389.34;;;21.51;86.81
26719;BME280;14326;50.794;6.060;2023-07-24T14:44:16;98394.44;;;21.57;84.00
26719;BME280;14326;50.794;6.060;2023-07-24T14:47:22;98400.19;;;21.51;84.66
26719;BME280;14326;50.794;6.060;2023-07-24T14:50:00;98397.31;;;21.54;83.25
26719;BME280;14326;50.794;6.060;2023-07-24T14:52:50;98400.22;;;21.67;82.16
26719;BME280;14326;50.794;6.060;2023-07-24T14:55:27;98408.09;;;21.87;81.02
26719;BME280;14326;50.794;6.060;2023-07-24T14:58:10;98387.31;;;21.87;81.35
26719;BME280;14326;50.794;6.060;2023-07-24T15:01:10;98389.22;;;22.02;78.89
26719;BME280;14326;50.794;6.060;2023-07-24T15:03:45;98374.34;;;22.10;81.13
26719;BME280;14326;50.794;6.060;2023-07-24T15:06:27;98385.72;;;22.00;76.85
26719;BME280;14326;50.794;6.060;2023-07-24T15:09:06;98382.31;;;21.80;75.80
26719;BME280;14326;50.794;6.060;2023-07-24T15:12:08;98381.13;;;21.85;77.17
26719;BME280;14326;50.794;6.060;2023-07-24T15:14:52;98383.88;;;22.01;74.75
26719;BME280;14326;50.794;6.060;2023-07-24T15:17:29;98387.38;;;22.19;73.05
26719;BME280;14326;50.794;6.060;2023-07-24T15:20:30;98382.19;;;22.30;75.36